createdAt,value
2023-02-05T00:01:38.569Z,99970.00
2023-02-05T00:04:06.208Z,99977.00
2023-02-05T00:06:35.146Z,99980.00
2023-02-05T00:09:02.725Z,99983.00
2023-02-05T00:11:30.358Z,99979.00
2023-02-05T00:13:58.061Z,99978.00
2023-02-05T00:16:26.563Z,99983.00
2023-02-05T00:18:54.909Z,99983.00
2023-02-05T00:21:24.128Z,99969.00
2023-02-05T00:23:54.438Z,99976.00
2023-02-05T00:26:22.091Z,99973.00
2023-02-05T00:28:49.676Z,99975.00
2023-02-05T00:31:19.810Z,99981.00
2023-02-05T00:33:47.909Z,99968.00
2023-02-05T00:36:16.414Z,99963.00
2023-02-05T00:38:45.368Z,99961.00
2023-02-05T00:41:15.138Z,99958.00
2023-02-05T00:43:43.786Z,99964.00
2023-02-05T00:46:13.097Z,99954.00
2023-02-05T00:48:41.440Z,99957.00
2023-02-05T00:51:09.678Z,99955.00
2023-02-05T00:53:37.399Z,99955.00
2023-02-05T00:56:05.307Z,99966.00
2023-02-05T00:58:34.596Z,99963.00
2023-02-05T01:01:02.241Z,99964.00
2023-02-05T01:03:29.883Z,99973.00
2023-02-05T01:05:57.688Z,99978.00
2023-02-05T01:08:25.342Z,99979.00
2023-02-05T01:10:53.432Z,99982.00
2023-02-05T01:13:21.116Z,99980.00
2023-02-05T01:15:50.042Z,99977.00
2023-02-05T01:18:17.995Z,99977.00
2023-02-05T01:20:45.607Z,99975.00
2023-02-05T01:23:13.361Z,99972.00
2023-02-05T01:25:40.975Z,99976.00
2023-02-05T01:28:08.625Z,99976.00
2023-02-05T01:30:36.813Z,99972.00
2023-02-05T01:33:06.038Z,99975.00
2023-02-05T01:35:33.993Z,99971.00
2023-02-05T01:38:01.813Z,99966.00
2023-02-05T01:40:29.551Z,99968.00
2023-02-05T01:42:57.130Z,99959.00
2023-02-05T01:45:50.965Z,99954.00
2023-02-05T01:48:22.753Z,99958.00
2023-02-05T01:50:58.942Z,99949.00
2023-02-05T01:53:30.044Z,99948.00
2023-02-05T01:56:01.099Z,99942.00
2023-02-05T01:58:32.277Z,99934.00
2023-02-05T02:00:59.944Z,99928.00
2023-02-05T02:03:31.173Z,99924.00
2023-02-05T02:05:59.138Z,99929.00
2023-02-05T02:08:27.157Z,99931.00
2023-02-05T02:10:59.152Z,99933.00
2023-02-05T02:13:28.394Z,99940.00
2023-02-05T02:15:56.822Z,99940.00
2023-02-05T02:18:28.708Z,99923.00
2023-02-05T02:21:20.351Z,99931.00
2023-02-05T02:24:03.726Z,99924.00
2023-02-05T02:26:54.504Z,99912.00
2023-02-05T02:29:30.096Z,99902.00
2023-02-05T02:32:02.406Z,99899.00
2023-02-05T02:34:35.982Z,99896.00
2023-02-05T02:37:09.148Z,99892.00
2023-02-05T02:39:42.098Z,99895.00
2023-02-05T02:42:15.843Z,99888.00
2023-02-05T02:44:49.555Z,99886.00
2023-02-05T02:47:21.535Z,99888.00
2023-02-05T02:49:53.002Z,99889.00
2023-02-05T02:52:22.300Z,99891.00
2023-02-05T02:54:53.566Z,99893.00
2023-02-05T02:57:24.835Z,99885.00
2023-02-05T02:59:56.006Z,99885.00
2023-02-05T03:02:24.659Z,99879.00
2023-02-05T03:04:57.506Z,99879.00
2023-02-05T03:07:29.817Z,99884.00
2023-02-05T03:10:03.453Z,99888.00
2023-02-05T03:12:32.225Z,99893.00
2023-02-05T03:15:01.742Z,99889.00
2023-02-05T03:17:30.942Z,99889.00
2023-02-05T03:20:03.101Z,99890.00
2023-02-05T03:22:31.104Z,99884.00
2023-02-05T03:24:59.299Z,99884.00
2023-02-05T03:27:27.397Z,99881.00
2023-02-05T03:29:55.658Z,99883.00
2023-02-05T03:32:37.376Z,99876.00
2023-02-05T03:35:19.343Z,99879.00
2023-02-05T03:37:57.411Z,99874.00
2023-02-05T03:40:35.690Z,99865.00
2023-02-05T03:43:13.141Z,99863.00
2023-02-05T03:45:50.075Z,99862.00
2023-02-05T03:48:39.715Z,99864.00
2023-02-05T03:51:22.651Z,99850.00
2023-02-05T03:54:01.565Z,99853.00
2023-02-05T03:56:35.112Z,99849.00
2023-02-05T03:59:05.045Z,99845.00
2023-02-05T04:01:33.511Z,99846.00
2023-02-05T04:04:02.525Z,99846.00
2023-02-05T04:06:30.063Z,99855.00
2023-02-05T04:08:58.278Z,99846.00
2023-02-05T04:11:25.878Z,99854.00
2023-02-05T04:13:53.437Z,99851.00
2023-02-05T04:16:21.009Z,99849.00
2023-02-05T04:18:48.693Z,99844.00
2023-02-05T04:21:17.589Z,99844.00
2023-02-05T04:23:45.218Z,99848.00
2023-02-05T04:26:12.759Z,99848.00
2023-02-05T04:28:40.328Z,99850.00
2023-02-05T04:31:08.594Z,99849.00
2023-02-05T04:33:36.248Z,99849.00
2023-02-05T04:36:04.265Z,99849.00
2023-02-05T04:38:33.208Z,99841.00
2023-02-05T04:41:00.772Z,99845.00
2023-02-05T04:43:28.415Z,99848.00
2023-02-05T04:45:56.023Z,99865.00
2023-02-05T04:48:23.656Z,99876.00
2023-02-05T04:50:51.215Z,99874.00
2023-02-05T04:53:18.833Z,99876.00
2023-02-05T04:55:47.768Z,99871.00
2023-02-05T04:58:15.369Z,99864.00
2023-02-05T05:00:42.963Z,99863.00
2023-02-05T05:03:10.716Z,99871.00
2023-02-05T05:05:38.391Z,99864.00
2023-02-05T05:08:06.188Z,99863.00
2023-02-05T05:10:33.777Z,99866.00
2023-02-05T05:13:02.703Z,99873.00
2023-02-05T05:15:30.404Z,99865.00
2023-02-05T05:17:58.100Z,99870.00
2023-02-05T05:20:25.673Z,99872.00
2023-02-05T05:22:53.292Z,99862.00
2023-02-05T05:25:20.898Z,99859.00
2023-02-05T05:27:48.684Z,99859.00
2023-02-05T05:30:17.670Z,99862.00
2023-02-05T05:32:45.266Z,99856.00
2023-02-05T05:35:13.275Z,99854.00
2023-02-05T05:37:40.862Z,99856.00
2023-02-05T05:40:26.905Z,99851.00
2023-02-05T05:43:12.033Z,99863.00
2023-02-05T05:45:40.992Z,99867.00
2023-02-05T05:48:09.124Z,99860.00
2023-02-05T05:50:36.770Z,99848.00
2023-02-05T05:53:04.505Z,99848.00
2023-02-05T05:55:32.190Z,99849.00
2023-02-05T05:57:59.973Z,99858.00
2023-02-05T06:00:28.788Z,99851.00
2023-02-05T06:02:57.923Z,99849.00
2023-02-05T06:05:25.569Z,99866.00
2023-02-05T06:07:53.221Z,99866.00
2023-02-05T06:10:21.396Z,99872.00
2023-02-05T06:12:50.308Z,99857.00
2023-02-05T06:15:19.983Z,99856.00
2023-02-05T06:17:48.776Z,99858.00
2023-02-05T06:20:24.001Z,99852.00
2023-02-05T06:22:51.998Z,99846.00
2023-02-05T06:25:19.843Z,99869.00
2023-02-05T06:27:47.486Z,99846.00
2023-02-05T06:30:15.381Z,99846.00
2023-02-05T06:32:43.335Z,99842.00
2023-02-05T06:35:11.240Z,99838.00
2023-02-05T06:37:47.961Z,99843.00
2023-02-05T06:40:19.457Z,99835.00
2023-02-05T06:42:50.142Z,99838.00
2023-02-05T06:45:17.953Z,99834.00
2023-02-05T06:47:47.092Z,99831.00
2023-02-05T06:50:15.180Z,99840.00
2023-02-05T06:52:51.937Z,99836.00
2023-02-05T06:55:24.458Z,99842.00
2023-02-05T06:57:52.234Z,99844.00
2023-02-05T07:00:20.917Z,99840.00
2023-02-05T07:02:48.895Z,99837.00
2023-02-05T07:05:17.230Z,99840.00
2023-02-05T07:07:49.696Z,99847.00
2023-02-05T07:10:20.525Z,99849.00
2023-02-05T07:12:53.585Z,99857.00
2023-02-05T07:15:21.854Z,99853.00
2023-02-05T07:17:51.031Z,99851.00
2023-02-05T07:20:19.027Z,99857.00
2023-02-05T07:22:48.442Z,99859.00
2023-02-05T07:25:16.354Z,99866.00
2023-02-05T07:27:44.136Z,99857.00
2023-02-05T07:30:18.350Z,99851.00
2023-02-05T07:33:08.331Z,99844.00
2023-02-05T07:35:41.003Z,99835.00
2023-02-05T07:38:10.890Z,99840.00
2023-02-05T07:40:38.899Z,99837.00
2023-02-05T07:43:52.007Z,99834.00
2023-02-05T07:46:21.608Z,99830.00
2023-02-05T07:48:52.658Z,99827.00
2023-02-05T07:51:23.034Z,99811.00
2023-02-05T07:53:53.050Z,99804.00
2023-02-05T07:56:21.733Z,99810.00
2023-02-05T07:58:49.905Z,99806.00
2023-02-05T08:01:17.785Z,99802.00
2023-02-05T08:03:45.580Z,99794.00
2023-02-05T08:06:16.587Z,99796.00
2023-02-05T08:08:44.572Z,99797.00
2023-02-05T08:11:16.043Z,99793.00
2023-02-05T08:13:51.125Z,99784.00
2023-02-05T08:16:21.685Z,99778.00
2023-02-05T08:18:50.387Z,99778.00
2023-02-05T08:21:18.951Z,99771.00
2023-02-05T08:23:46.991Z,99770.00
2023-02-05T08:26:22.309Z,99774.00
2023-02-05T08:28:51.283Z,99765.00
2023-02-05T08:31:30.216Z,99772.00
2023-02-05T08:34:00.165Z,99769.00
2023-02-05T08:36:34.335Z,99763.00
2023-02-05T08:39:02.288Z,99763.00
2023-02-05T08:41:33.396Z,99758.00
2023-02-05T08:44:07.314Z,99762.00
2023-02-05T08:46:48.757Z,99776.00
2023-02-05T08:49:18.257Z,99781.00
2023-02-05T08:51:46.261Z,99773.00
2023-02-05T08:54:15.241Z,99781.00
2023-02-05T08:56:46.154Z,99770.00
2023-02-05T08:59:13.897Z,99769.00
2023-02-05T09:01:43.151Z,99770.00
2023-02-05T09:04:15.933Z,99763.00
2023-02-05T09:06:44.153Z,99754.00
2023-02-05T09:09:13.076Z,99748.00
2023-02-05T09:11:41.928Z,99748.00
2023-02-05T09:14:13.061Z,99741.00
2023-02-05T09:16:45.038Z,99735.00
2023-02-05T09:19:13.157Z,99726.00
2023-02-05T09:21:45.299Z,99716.00
2023-02-05T09:24:12.984Z,99714.00
2023-02-05T09:26:40.706Z,99714.00
2023-02-05T09:29:08.434Z,99715.00
2023-02-05T09:31:37.591Z,99715.00
2023-02-05T09:34:06.332Z,99716.00
2023-02-05T09:36:45.201Z,99713.00
2023-02-05T09:40:01.910Z,99717.00
2023-02-05T09:42:19.854Z,99715.00
2023-02-05T09:45:02.037Z,99710.00
2023-02-05T09:47:35.648Z,99699.00
2023-02-05T09:50:11.695Z,99697.00
2023-02-05T09:52:47.762Z,99685.00
2023-02-05T09:55:21.659Z,99679.00
2023-02-05T09:57:50.605Z,99681.00
2023-02-05T10:00:27.369Z,99693.00
2023-02-05T10:03:09.894Z,99697.00
2023-02-05T10:05:47.130Z,99695.00
2023-02-05T10:08:23.307Z,99692.00
2023-02-05T10:10:51.670Z,99689.00
2023-02-05T10:13:34.582Z,99689.00
2023-02-05T10:16:35.714Z,99687.00
2023-02-05T10:19:27.259Z,99682.00
2023-02-05T10:22:13.759Z,99681.00
2023-02-05T10:25:04.722Z,99689.00
2023-02-05T10:27:40.816Z,99677.00
2023-02-05T10:30:19.278Z,99663.00
2023-02-05T10:32:57.514Z,99658.00
2023-02-05T10:35:32.525Z,99654.00
2023-02-05T10:38:00.761Z,99658.00
2023-02-05T10:40:32.204Z,99653.00
2023-02-05T10:43:21.922Z,99647.00
2023-02-05T10:45:56.199Z,99643.00
2023-02-05T10:48:32.870Z,99637.00
2023-02-05T10:51:08.993Z,99634.00
2023-02-05T10:53:37.648Z,99638.00
2023-02-05T10:56:08.675Z,99630.00
2023-02-05T10:58:44.513Z,99627.00
2023-02-05T11:01:16.991Z,99622.00
2023-02-05T11:03:56.011Z,99620.00
2023-02-05T11:06:28.490Z,99618.00
2023-02-05T11:08:56.565Z,99614.00
2023-02-05T11:11:28.174Z,99612.00
2023-02-05T11:13:58.630Z,99602.00
2023-02-05T11:16:37.150Z,99607.00
2023-02-05T11:19:05.602Z,99590.00
2023-02-05T11:21:55.950Z,99587.00
2023-02-05T11:24:27.188Z,99593.00
2023-02-05T11:27:32.229Z,99607.00
2023-02-05T11:30:24.749Z,99611.00
2023-02-05T11:33:25.016Z,99606.00
2023-02-05T11:35:57.976Z,99616.00
2023-02-05T11:38:40.048Z,99605.00
2023-02-05T11:41:09.520Z,99612.00
2023-02-05T11:43:39.933Z,99614.00
2023-02-05T11:46:10.813Z,99620.00
2023-02-05T11:48:41.957Z,99615.00
2023-02-05T11:51:12.518Z,99606.00
2023-02-05T11:53:51.539Z,99608.00
2023-02-05T11:56:50.006Z,99602.00
2023-02-05T11:59:22.986Z,99600.00
2023-02-05T12:01:55.926Z,99607.00
2023-02-05T12:04:25.612Z,99599.00
2023-02-05T12:06:54.999Z,99591.00
2023-02-05T12:09:26.330Z,99591.00
2023-02-05T12:12:11.939Z,99589.00
2023-02-05T12:14:44.022Z,99583.00
2023-02-05T12:17:32.239Z,99582.00
2023-02-05T12:20:12.077Z,99576.00
2023-02-05T12:22:56.052Z,99573.00
2023-02-05T12:25:30.298Z,99561.00
2023-02-05T12:28:19.157Z,99560.00
2023-02-05T12:31:02.664Z,99554.00
2023-02-05T12:33:51.025Z,99552.00
2023-02-05T12:36:40.603Z,99539.00
2023-02-05T12:39:23.542Z,99528.00
2023-02-05T12:42:07.086Z,99524.00
2023-02-05T12:44:48.638Z,99522.00
2023-02-05T12:47:31.939Z,99522.00
2023-02-05T12:50:11.990Z,99517.00
2023-02-05T12:52:54.747Z,99517.00
2023-02-05T12:55:42.405Z,99516.00
2023-02-05T12:58:15.381Z,99511.00
2023-02-05T13:01:03.795Z,99521.00
2023-02-05T13:03:47.513Z,99518.00
2023-02-05T13:06:21.334Z,99513.00
2023-02-05T13:08:52.852Z,99519.00
2023-02-05T13:11:25.760Z,99517.00
2023-02-05T13:14:01.237Z,99513.00
2023-02-05T13:16:37.816Z,99519.00
2023-02-05T13:19:14.890Z,99521.00
2023-02-05T13:22:02.260Z,99522.00
2023-02-05T13:25:01.519Z,99516.00
2023-02-05T13:31:27.409Z,99513.00
2023-02-05T13:33:57.646Z,99520.00
2023-02-05T13:37:13.002Z,99518.00
2023-02-05T13:40:09.746Z,99517.00
2023-02-05T13:43:21.697Z,99518.00
2023-02-05T13:46:21.081Z,99525.00
2023-02-05T13:49:12.142Z,99529.00
2023-02-05T13:51:48.288Z,99540.00
2023-02-05T13:54:58.182Z,99532.00
2023-02-05T13:58:14.130Z,99534.00
2023-02-05T14:04:37.912Z,99523.00
2023-02-05T14:07:09.335Z,99521.00
2023-02-05T14:09:41.344Z,99524.00
2023-02-05T14:12:11.681Z,99523.00
2023-02-05T14:14:41.051Z,99530.00
2023-02-05T14:17:57.467Z,99516.00
2023-02-05T14:20:36.289Z,99520.00
2023-02-05T14:23:12.613Z,99516.00
2023-02-05T14:26:12.965Z,99509.00
2023-02-05T14:28:49.448Z,99508.00
2023-02-05T14:31:56.824Z,99503.00
2023-02-05T14:34:48.802Z,99520.00
2023-02-05T14:37:28.133Z,99523.00
2023-02-05T14:39:56.108Z,99527.00
2023-02-05T14:42:23.955Z,99530.00
2023-02-05T14:44:57.454Z,99525.00
2023-02-05T14:47:28.229Z,99535.00
2023-02-05T14:50:03.576Z,99535.00
2023-02-05T14:52:36.263Z,99542.00
2023-02-05T14:55:08.447Z,99541.00
2023-02-05T14:57:43.253Z,99548.00
2023-02-05T15:00:26.407Z,99554.00
2023-02-05T15:03:24.287Z,99547.00
2023-02-05T15:05:56.706Z,99548.00
2023-02-05T15:08:44.210Z,99547.00
2023-02-05T15:11:18.692Z,99560.00
2023-02-05T15:14:19.848Z,99562.00
2023-02-05T15:16:48.082Z,99569.00
2023-02-05T15:19:19.619Z,99566.00
2023-02-05T15:21:51.625Z,99576.00
2023-02-05T15:24:23.545Z,99577.00
2023-02-05T15:26:56.358Z,99578.00
2023-02-05T15:29:28.753Z,99580.00
2023-02-05T15:32:00.163Z,99580.00
2023-02-05T15:34:44.586Z,99585.00
2023-02-05T15:37:21.520Z,99586.00
2023-02-05T15:39:54.862Z,99587.00
2023-02-05T15:42:31.717Z,99595.00
2023-02-05T15:45:24.464Z,99589.00
2023-02-05T15:48:03.048Z,99585.00
2023-02-05T15:50:32.612Z,99591.00
2023-02-05T15:53:00.985Z,99594.00
2023-02-05T15:55:31.052Z,99600.00
2023-02-05T15:58:05.371Z,99594.00
2023-02-05T16:00:35.487Z,99592.00
2023-02-05T16:03:08.352Z,99588.00
2023-02-05T16:05:38.913Z,99597.00
2023-02-05T16:08:23.559Z,99605.00
2023-02-05T16:11:01.959Z,99598.00
2023-02-05T16:13:34.761Z,99598.00
2023-02-05T16:16:10.391Z,99601.00
2023-02-05T16:18:43.188Z,99612.00
2023-02-05T16:21:19.472Z,99617.00
2023-02-05T16:23:54.934Z,99609.00
2023-02-05T16:26:30.221Z,99614.00
2023-02-05T16:29:01.961Z,99619.00
2023-02-05T16:31:31.193Z,99627.00
2023-02-05T16:34:02.988Z,99618.00
2023-02-05T16:36:33.279Z,99625.00
2023-02-05T16:39:03.714Z,99630.00
2023-02-05T16:41:36.745Z,99621.00
2023-02-05T16:44:07.530Z,99624.00
2023-02-05T16:46:36.411Z,99612.00
2023-02-05T16:49:05.545Z,99614.00
2023-02-05T16:51:47.049Z,99612.00
2023-02-05T16:54:31.216Z,99615.00
2023-02-05T16:57:05.365Z,99620.00
2023-02-05T16:59:36.130Z,99620.00
2023-02-05T17:02:04.442Z,99632.00
2023-02-05T17:04:34.624Z,99640.00
2023-02-05T17:24:22.086Z,99690.00
2023-02-05T17:26:49.602Z,99684.00
2023-02-05T17:29:17.199Z,99679.00
2023-02-05T17:31:44.897Z,99671.00
2023-02-05T17:34:13.032Z,99655.00
2023-02-05T17:47:14.940Z,99671.00
2023-02-05T17:49:42.837Z,99661.00
2023-02-05T17:52:11.251Z,99663.00
2023-02-05T17:54:39.224Z,99670.00
2023-02-05T17:57:16.145Z,99665.00
2023-02-05T17:59:44.922Z,99671.00
2023-02-05T18:02:13.308Z,99677.00
2023-02-05T18:04:43.493Z,99684.00
2023-02-05T18:07:57.831Z,99680.00
2023-02-05T18:10:27.861Z,99683.00
2023-02-05T18:12:56.300Z,99679.00
2023-02-05T18:15:24.337Z,99677.00
2023-02-05T18:17:52.690Z,99680.00
2023-02-05T18:20:21.862Z,99685.00
2023-02-05T18:22:50.099Z,99677.00
2023-02-05T18:25:18.045Z,99680.00
2023-02-05T18:27:45.717Z,99678.00
2023-02-05T18:30:13.793Z,99678.00
2023-02-05T18:32:41.531Z,99682.00
2023-02-05T18:35:14.230Z,99689.00
2023-02-05T18:37:43.670Z,99699.00
2023-02-05T18:40:13.596Z,99711.00
2023-02-05T18:42:41.567Z,99717.00
2023-02-05T18:45:10.468Z,99717.00
2023-02-05T18:47:37.986Z,99720.00
2023-02-05T18:50:07.892Z,99723.00
2023-02-05T18:52:36.299Z,99717.00
2023-02-05T18:55:05.998Z,99724.00
2023-02-05T18:57:33.469Z,99733.00
2023-02-05T19:00:01.012Z,99734.00
2023-02-05T19:02:28.572Z,99728.00
2023-02-05T19:04:56.312Z,99730.00
2023-02-05T19:07:24.770Z,99730.00
2023-02-05T19:09:52.987Z,99721.00
2023-02-05T19:12:21.901Z,99734.00
2023-02-05T19:14:49.798Z,99728.00
2023-02-05T19:17:17.469Z,99735.00
2023-02-05T19:19:45.035Z,99743.00
2023-02-05T19:22:12.526Z,99752.00
2023-02-05T19:24:40.636Z,99752.00
2023-02-05T19:27:08.174Z,99751.00
2023-02-05T19:29:39.868Z,99747.00
2023-02-05T19:32:08.552Z,99748.00
2023-02-05T19:34:38.389Z,99740.00
2023-02-05T19:37:06.168Z,99743.00
2023-02-05T19:39:33.711Z,99748.00
2023-02-05T19:42:01.488Z,99762.00
2023-02-05T19:44:30.858Z,99765.00
2023-02-05T19:46:59.737Z,99779.00
2023-02-05T19:49:27.452Z,99781.00
2023-02-05T19:51:56.337Z,99783.00
2023-02-05T19:54:24.244Z,99780.00
2023-02-05T19:56:52.297Z,99778.00
2023-02-05T19:59:20.956Z,99775.00
2023-02-05T20:01:49.733Z,99781.00
2023-02-05T20:04:22.170Z,99776.00
2023-02-05T20:06:52.082Z,99766.00
2023-02-05T20:09:19.784Z,99765.00
2023-02-05T20:11:49.162Z,99768.00
2023-02-05T20:14:17.517Z,99768.00
2023-02-05T20:16:45.680Z,99775.00
2023-02-05T20:19:14.791Z,99787.00
2023-02-05T20:21:45.057Z,99783.00
2023-02-05T20:24:12.838Z,99800.00
2023-02-05T20:26:40.834Z,99805.00
2023-02-05T20:29:26.618Z,99797.00
2023-02-05T20:31:54.919Z,99797.00
2023-02-05T20:34:25.573Z,99801.00
2023-02-05T20:36:56.385Z,99793.00
2023-02-05T20:39:28.468Z,99792.00
2023-02-05T20:41:57.805Z,99795.00
2023-02-05T20:44:25.932Z,99803.00
2023-02-05T20:46:53.525Z,99809.00
2023-02-05T20:49:21.245Z,99812.00
2023-02-05T20:51:48.797Z,99820.00
2023-02-05T20:54:17.656Z,99831.00
2023-02-05T20:56:45.209Z,99824.00
2023-02-05T20:59:13.522Z,99826.00
2023-02-05T21:01:41.107Z,99827.00
2023-02-05T21:04:10.152Z,99834.00
2023-02-05T21:06:39.411Z,99832.00
2023-02-05T21:09:09.160Z,99836.00
2023-02-05T21:11:39.146Z,99836.00
2023-02-05T21:14:07.598Z,99833.00
2023-02-05T21:16:35.562Z,99846.00
2023-02-05T21:19:04.403Z,99850.00
2023-02-05T21:21:33.796Z,99852.00
2023-02-05T21:24:03.903Z,99862.00
2023-02-05T21:27:07.392Z,99877.00
2023-02-05T21:29:35.253Z,99873.00
2023-02-05T21:32:02.826Z,99872.00
2023-02-05T21:34:30.638Z,99875.00
2023-02-05T21:37:04.467Z,99873.00
2023-02-05T21:39:32.630Z,99868.00
2023-02-05T21:42:00.286Z,99870.00
2023-02-05T21:44:29.172Z,99881.00
2023-02-05T21:46:56.761Z,99887.00
2023-02-05T21:49:24.373Z,99884.00
2023-02-05T21:51:53.217Z,99877.00
2023-02-05T21:54:25.187Z,99883.00
2023-02-05T21:56:53.480Z,99888.00
2023-02-05T21:59:21.051Z,99887.00
2023-02-05T22:01:50.232Z,99894.00
2023-02-05T22:04:17.951Z,99889.00
2023-02-05T22:06:45.976Z,99890.00
2023-02-05T22:09:16.559Z,99897.00
2023-02-05T22:11:44.398Z,99904.00
2023-02-05T22:14:12.741Z,99900.00
2023-02-05T22:16:40.849Z,99896.00
2023-02-05T22:19:09.840Z,99906.00
2023-02-05T22:21:39.675Z,99901.00
2023-02-05T22:24:09.841Z,99905.00
2023-02-05T22:26:39.745Z,99912.00
2023-02-05T22:29:09.726Z,99923.00
2023-02-05T22:31:38.234Z,99922.00
2023-02-05T22:34:06.692Z,99928.00
2023-02-05T22:36:36.924Z,99929.00
2023-02-05T22:39:06.229Z,99932.00
2023-02-05T22:41:37.018Z,99932.00
2023-02-05T22:44:07.423Z,99942.00
2023-02-05T22:46:39.743Z,99939.00
2023-02-05T22:49:08.131Z,99957.00
2023-02-05T22:51:40.512Z,99955.00
2023-02-05T22:54:11.637Z,99958.00
2023-02-05T22:56:39.355Z,99960.00
2023-02-05T22:59:08.159Z,99964.00
2023-02-05T23:01:38.941Z,99969.00
2023-02-05T23:04:08.570Z,99979.00
2023-02-05T23:06:39.460Z,99983.00
2023-02-05T23:09:08.754Z,99979.00
2023-02-05T23:11:36.941Z,99978.00
2023-02-05T23:14:06.210Z,99970.00
2023-02-05T23:16:35.762Z,99974.00
2023-02-05T23:19:05.580Z,99977.00
2023-02-05T23:21:35.277Z,99983.00
2023-02-05T23:24:04.884Z,99989.00
2023-02-05T23:26:34.078Z,99991.00
2023-02-05T23:29:02.265Z,99992.00
2023-02-05T23:31:30.502Z,100005.00
2023-02-05T23:33:58.221Z,100010.00
2023-02-05T23:36:25.890Z,100007.00
2023-02-05T23:38:53.534Z,100015.00
2023-02-05T23:41:36.551Z,100014.00
2023-02-05T23:44:06.684Z,100020.00
2023-02-05T23:46:34.783Z,100015.00
2023-02-05T23:49:02.328Z,100009.00
2023-02-05T23:51:29.959Z,100013.00
2023-02-05T23:53:57.590Z,100008.00
2023-02-05T23:56:26.573Z,100011.00
2023-02-05T23:58:54.275Z,100003.00
